sensor_id;sensor_type;location;lat;lon;timestamp;pressure;altitude;pressure_sealevel;temperature;humidity
59831;BME280;45711;50.108;13.712;2023-04-10T00:00:42;98702.03;;;6.95;90.13
59831;BME280;45711;50.108;13.712;2023-04-10T00:03:09;98688.78;;;6.84;91.23
59831;BME280;45711;50.108;13.712;2023-04-10T00:05:36;98688.88;;;6.89;90.65
59831;BME280;45711;50.108;13.712;2023-04-10T00:08:02;98691.31;;;6.78;90.72
59831;BME280;45711;50.108;13.712;2023-04-10T00:10:28;98693.22;;;6.66;90.38
59831;BME280;45711;50.108;13.712;2023-04-10T00:12:56;98687.63;;;6.68;91.09
59831;BME280;45711;50.108;13.712;2023-04-10T00:15:21;98693.66;;;6.63;90.71
59831;BME280;45711;50.108;13.712;2023-04-10T00:17:47;98689.25;;;6.80;90.14
59831;BME280;45711;50.108;13.712;2023-04-10T00:20:14;98687.91;;;6.95;89.34
59831;BME280;45711;50.108;13.712;2023-04-10T00:22:41;98681.25;;;6.92;89.44
59831;BME280;45711;50.108;13.712;2023-04-10T00:25:07;98673.34;;;6.97;89.19
59831;BME280;45711;50.108;13.712;2023-04-10T00:27:33;98676.19;;;7.08;89.19
59831;BME280;45711;50.108;13.712;2023-04-10T00:29:58;98667.94;;;7.21;87.74
59831;BME280;45711;50.108;13.712;2023-04-10T00:32:24;98673.94;;;7.28;87.42
59831;BME280;45711;50.108;13.712;2023-04-10T00:34:50;98675.50;;;7.41;86.37
59831;BME280;45711;50.108;13.712;2023-04-10T00:37:15;98663.47;;;7.38;86.65
59831;BME280;45711;50.108;13.712;2023-04-10T00:39:43;98668.75;;;7.21;87.89
59831;BME280;45711;50.108;13.712;2023-04-10T00:42:08;98661.66;;;7.27;86.94
59831;BME280;45711;50.108;13.712;2023-04-10T00:44:34;98660.22;;;7.08;87.61
59831;BME280;45711;50.108;13.712;2023-04-10T00:47:01;98660.84;;;6.98;88.29
59831;BME280;45711;50.108;13.712;2023-04-10T00:49:27;98660.63;;;6.88;89.24
59831;BME280;45711;50.108;13.712;2023-04-10T00:51:53;98671.94;;;6.66;89.53
59831;BME280;45711;50.108;13.712;2023-04-10T00:54:19;98664.97;;;6.65;90.25
59831;BME280;45711;50.108;13.712;2023-04-10T00:56:46;98665.19;;;6.75;89.18
59831;BME280;45711;50.108;13.712;2023-04-10T00:59:13;98656.16;;;6.88;88.48
59831;BME280;45711;50.108;13.712;2023-04-10T01:01:39;98664.59;;;6.73;89.97
59831;BME280;45711;50.108;13.712;2023-04-10T01:04:05;98660.00;;;6.57;89.64
59831;BME280;45711;50.108;13.712;2023-04-10T01:06:41;98668.13;;;6.50;90.57
59831;BME280;45711;50.108;13.712;2023-04-10T01:09:18;98671.94;;;6.54;91.44
59831;BME280;45711;50.108;13.712;2023-04-10T01:11:53;98670.31;;;6.53;91.27
59831;BME280;45711;50.108;13.712;2023-04-10T01:14:25;98668.38;;;6.49;90.70
59831;BME280;45711;50.108;13.712;2023-04-10T01:16:54;98669.53;;;6.41;91.07
59831;BME280;45711;50.108;13.712;2023-04-10T01:19:30;98666.88;;;6.53;89.73
59831;BME280;45711;50.108;13.712;2023-04-10T01:22:04;98666.03;;;6.64;89.46
59831;BME280;45711;50.108;13.712;2023-04-10T01:24:45;98656.25;;;6.82;88.55
59831;BME280;45711;50.108;13.712;2023-04-10T01:27:25;98662.75;;;6.74;89.11
59831;BME280;45711;50.108;13.712;2023-04-10T01:29:56;98669.22;;;6.78;88.87
59831;BME280;45711;50.108;13.712;2023-04-10T01:32:23;98661.28;;;6.66;89.32
59831;BME280;45711;50.108;13.712;2023-04-10T01:34:51;98662.88;;;7.08;86.88
59831;BME280;45711;50.108;13.712;2023-04-10T01:37:21;98669.75;;;7.32;85.51
59831;BME280;45711;50.108;13.712;2023-04-10T01:39:50;98656.44;;;7.03;87.02
59831;BME280;45711;50.108;13.712;2023-04-10T01:42:19;98658.50;;;6.61;89.21
59831;BME280;45711;50.108;13.712;2023-04-10T01:44:47;98657.75;;;6.89;87.71
59831;BME280;45711;50.108;13.712;2023-04-10T01:47:16;98656.50;;;6.80;87.73
59831;BME280;45711;50.108;13.712;2023-04-10T01:49:43;98669.53;;;6.53;89.69
59831;BME280;45711;50.108;13.712;2023-04-10T01:52:11;98661.19;;;6.26;90.49
59831;BME280;45711;50.108;13.712;2023-04-10T01:54:37;98648.03;;;6.08;91.70
59831;BME280;45711;50.108;13.712;2023-04-10T01:57:03;98654.75;;;5.98;92.40
59831;BME280;45711;50.108;13.712;2023-04-10T01:59:29;98651.97;;;5.93;92.70
59831;BME280;45711;50.108;13.712;2023-04-10T02:01:56;98657.81;;;5.72;92.61
59831;BME280;45711;50.108;13.712;2023-04-10T02:04:24;98658.03;;;5.82;92.34
59831;BME280;45711;50.108;13.712;2023-04-10T02:07:00;98661.63;;;5.76;91.95
59831;BME280;45711;50.108;13.712;2023-04-10T02:09:32;98662.19;;;5.66;92.30
59831;BME280;45711;50.108;13.712;2023-04-10T02:12:03;98653.63;;;5.64;92.90
59831;BME280;45711;50.108;13.712;2023-04-10T02:14:31;98661.22;;;5.61;92.73
59831;BME280;45711;50.108;13.712;2023-04-10T02:16:57;98655.84;;;5.67;93.50
59831;BME280;45711;50.108;13.712;2023-04-10T02:19:27;98655.03;;;5.78;93.08
59831;BME280;45711;50.108;13.712;2023-04-10T02:21:56;98648.53;;;5.74;93.43
59831;BME280;45711;50.108;13.712;2023-04-10T02:24:23;98653.19;;;5.91;92.58
59831;BME280;45711;50.108;13.712;2023-04-10T02:26:51;98640.59;;;5.74;92.96
59831;BME280;45711;50.108;13.712;2023-04-10T02:29:17;98641.41;;;5.75;93.90
59831;BME280;45711;50.108;13.712;2023-04-10T02:31:44;98651.53;;;5.54;94.90
59831;BME280;45711;50.108;13.712;2023-04-10T02:34:10;98654.28;;;5.48;94.60
59831;BME280;45711;50.108;13.712;2023-04-10T02:36:38;98649.88;;;5.42;94.05
59831;BME280;45711;50.108;13.712;2023-04-10T02:39:04;98654.06;;;5.49;95.11
59831;BME280;45711;50.108;13.712;2023-04-10T02:41:30;98654.63;;;5.51;94.13
59831;BME280;45711;50.108;13.712;2023-04-10T02:43:56;98655.00;;;5.55;94.42
59831;BME280;45711;50.108;13.712;2023-04-10T02:46:22;98648.44;;;5.58;94.61
59831;BME280;45711;50.108;13.712;2023-04-10T02:48:47;98652.56;;;5.53;94.04
59831;BME280;45711;50.108;13.712;2023-04-10T02:51:13;98647.59;;;5.45;94.26
59831;BME280;45711;50.108;13.712;2023-04-10T02:53:40;98654.75;;;5.45;94.37
59831;BME280;45711;50.108;13.712;2023-04-10T02:56:06;98652.97;;;5.39;94.28
59831;BME280;45711;50.108;13.712;2023-04-10T02:58:32;98648.78;;;5.31;94.35
59831;BME280;45711;50.108;13.712;2023-04-10T03:00:58;98645.53;;;5.17;95.08
59831;BME280;45711;50.108;13.712;2023-04-10T03:03:24;98649.44;;;5.15;94.80
59831;BME280;45711;50.108;13.712;2023-04-10T03:05:49;98654.41;;;5.11;95.24
59831;BME280;45711;50.108;13.712;2023-04-10T03:08:15;98659.00;;;5.46;95.77
59831;BME280;45711;50.108;13.712;2023-04-10T03:10:43;98656.16;;;5.59;94.63
59831;BME280;45711;50.108;13.712;2023-04-10T03:13:09;98659.97;;;5.63;94.68
59831;BME280;45711;50.108;13.712;2023-04-10T03:15:36;98664.03;;;5.77;93.74
59831;BME280;45711;50.108;13.712;2023-04-10T03:18:02;98665.19;;;5.82;93.70
59831;BME280;45711;50.108;13.712;2023-04-10T03:20:27;98661.81;;;5.63;94.67
59831;BME280;45711;50.108;13.712;2023-04-10T03:22:53;98658.13;;;5.64;94.25
59831;BME280;45711;50.108;13.712;2023-04-10T03:25:19;98658.22;;;5.57;94.51
59831;BME280;45711;50.108;13.712;2023-04-10T03:27:46;98654.75;;;5.57;94.55
59831;BME280;45711;50.108;13.712;2023-04-10T03:30:12;98653.25;;;5.61;94.74
59831;BME280;45711;50.108;13.712;2023-04-10T03:32:37;98654.34;;;5.71;93.57
59831;BME280;45711;50.108;13.712;2023-04-10T03:35:07;98647.88;;;5.79;93.81
59831;BME280;45711;50.108;13.712;2023-04-10T03:37:32;98653.25;;;5.61;94.52
59831;BME280;45711;50.108;13.712;2023-04-10T03:39:58;98651.53;;;5.54;93.95
59831;BME280;45711;50.108;13.712;2023-04-10T03:42:23;98652.41;;;5.37;94.67
59831;BME280;45711;50.108;13.712;2023-04-10T03:44:50;98647.22;;;5.42;94.97
59831;BME280;45711;50.108;13.712;2023-04-10T03:47:16;98653.78;;;5.39;95.05
59831;BME280;45711;50.108;13.712;2023-04-10T03:49:41;98650.44;;;5.44;95.71
59831;BME280;45711;50.108;13.712;2023-04-10T03:52:07;98658.66;;;5.42;95.34
59831;BME280;45711;50.108;13.712;2023-04-10T03:54:32;98653.09;;;5.44;94.91
59831;BME280;45711;50.108;13.712;2023-04-10T03:56:59;98647.00;;;5.43;95.47
59831;BME280;45711;50.108;13.712;2023-04-10T03:59:25;98653.25;;;5.61;94.74
59831;BME280;45711;50.108;13.712;2023-04-10T04:01:52;98660.47;;;5.72;94.83
59831;BME280;45711;50.108;13.712;2023-04-10T04:04:18;98660.53;;;5.65;94.11
59831;BME280;45711;50.108;13.712;2023-04-10T04:06:43;98660.31;;;5.55;94.78
59831;BME280;45711;50.108;13.712;2023-04-10T04:09:09;98654.44;;;5.53;94.50
59831;BME280;45711;50.108;13.712;2023-04-10T04:11:34;98659.38;;;5.61;93.34
59831;BME280;45711;50.108;13.712;2023-04-10T04:14:00;98657.31;;;5.63;93.02
59831;BME280;45711;50.108;13.712;2023-04-10T04:16:26;98661.41;;;5.36;94.36
59831;BME280;45711;50.108;13.712;2023-04-10T04:18:52;98662.19;;;5.24;94.94
59831;BME280;45711;50.108;13.712;2023-04-10T04:21:18;98666.97;;;5.16;95.51
59831;BME280;45711;50.108;13.712;2023-04-10T04:23:44;98675.63;;;5.11;95.86
59831;BME280;45711;50.108;13.712;2023-04-10T04:26:09;98672.38;;;5.09;96.08
59831;BME280;45711;50.108;13.712;2023-04-10T04:28:35;98674.75;;;4.99;96.31
59831;BME280;45711;50.108;13.712;2023-04-10T04:31:00;98671.66;;;5.02;96.95
59831;BME280;45711;50.108;13.712;2023-04-10T04:33:27;98674.97;;;4.97;96.77
59831;BME280;45711;50.108;13.712;2023-04-10T04:35:55;98675.22;;;4.77;96.74
59831;BME280;45711;50.108;13.712;2023-04-10T04:38:20;98678.66;;;4.78;97.40
59831;BME280;45711;50.108;13.712;2023-04-10T04:40:46;98684.28;;;4.88;97.37
59831;BME280;45711;50.108;13.712;2023-04-10T04:43:12;98681.28;;;5.15;96.58
59831;BME280;45711;50.108;13.712;2023-04-10T04:45:37;98695.78;;;5.72;93.30
59831;BME280;45711;50.108;13.712;2023-04-10T04:48:03;98695.72;;;5.49;94.30
59831;BME280;45711;50.108;13.712;2023-04-10T04:50:28;98696.09;;;5.64;92.32
59831;BME280;45711;50.108;13.712;2023-04-10T04:52:55;98703.59;;;6.09;90.08
59831;BME280;45711;50.108;13.712;2023-04-10T04:55:21;98702.00;;;6.55;87.12
59831;BME280;45711;50.108;13.712;2023-04-10T04:57:46;98699.22;;;6.50;86.26
59831;BME280;45711;50.108;13.712;2023-04-10T05:00:12;98702.22;;;6.07;87.95
59831;BME280;45711;50.108;13.712;2023-04-10T05:02:38;98698.31;;;5.67;89.73
59831;BME280;45711;50.108;13.712;2023-04-10T05:05:04;98691.53;;;5.11;93.39
59831;BME280;45711;50.108;13.712;2023-04-10T05:07:30;98705.25;;;5.08;95.35
59831;BME280;45711;50.108;13.712;2023-04-10T05:09:58;98711.38;;;4.90;95.85
59831;BME280;45711;50.108;13.712;2023-04-10T05:12:24;98720.75;;;5.83;92.54
59831;BME280;45711;50.108;13.712;2023-04-10T05:14:49;98720.75;;;5.41;94.07
59831;BME280;45711;50.108;13.712;2023-04-10T05:17:15;98717.31;;;5.52;92.68
59831;BME280;45711;50.108;13.712;2023-04-10T05:19:41;98715.38;;;5.60;92.74
59831;BME280;45711;50.108;13.712;2023-04-10T05:22:06;98712.34;;;5.44;93.73
59831;BME280;45711;50.108;13.712;2023-04-10T05:24:32;98715.38;;;5.29;95.24
59831;BME280;45711;50.108;13.712;2023-04-10T05:26:59;98719.63;;;5.49;93.86
59831;BME280;45711;50.108;13.712;2023-04-10T05:29:25;98723.09;;;5.49;94.47
59831;BME280;45711;50.108;13.712;2023-04-10T05:31:50;98720.00;;;5.64;93.85
59831;BME280;45711;50.108;13.712;2023-04-10T05:34:16;98718.75;;;5.78;92.46
59831;BME280;45711;50.108;13.712;2023-04-10T05:36:42;98721.81;;;5.52;95.23
59831;BME280;45711;50.108;13.712;2023-04-10T05:39:07;98718.94;;;5.53;95.25
59831;BME280;45711;50.108;13.712;2023-04-10T05:41:33;98720.91;;;6.00;94.10
59831;BME280;45711;50.108;13.712;2023-04-10T05:44:00;98716.09;;;5.97;93.50
59831;BME280;45711;50.108;13.712;2023-04-10T05:46:25;98722.41;;;5.96;93.48
59831;BME280;45711;50.108;13.712;2023-04-10T05:48:51;98724.34;;;5.89;94.03
59831;BME280;45711;50.108;13.712;2023-04-10T05:51:17;98725.06;;;5.96;94.53
59831;BME280;45711;50.108;13.712;2023-04-10T05:53:42;98721.88;;;6.17;93.05
59831;BME280;45711;50.108;13.712;2023-04-10T05:56:09;98725.06;;;5.96;93.45
59831;BME280;45711;50.108;13.712;2023-04-10T05:58:34;98714.22;;;6.09;93.03
59831;BME280;45711;50.108;13.712;2023-04-10T06:01:01;98715.97;;;6.03;93.33
59831;BME280;45711;50.108;13.712;2023-04-10T06:03:27;98716.78;;;6.16;92.86
59831;BME280;45711;50.108;13.712;2023-04-10T06:05:54;98716.00;;;6.62;90.95
59831;BME280;45711;50.108;13.712;2023-04-10T06:08:20;98713.72;;;7.06;88.20
59831;BME280;45711;50.108;13.712;2023-04-10T06:10:47;98717.81;;;6.85;89.65
59831;BME280;45711;50.108;13.712;2023-04-10T06:13:13;98714.69;;;6.65;90.31
59831;BME280;45711;50.108;13.712;2023-04-10T06:15:39;98717.81;;;7.14;86.64
59831;BME280;45711;50.108;13.712;2023-04-10T06:18:06;98710.13;;;7.41;87.00
59831;BME280;45711;50.108;13.712;2023-04-10T06:20:32;98712.41;;;7.49;86.45
59831;BME280;45711;50.108;13.712;2023-04-10T06:23:01;98715.91;;;7.66;86.39
59831;BME280;45711;50.108;13.712;2023-04-10T06:25:47;98719.09;;;7.51;86.51
59831;BME280;45711;50.108;13.712;2023-04-10T06:28:12;98716.75;;;7.84;82.59
59831;BME280;45711;50.108;13.712;2023-04-10T06:30:48;98724.31;;;8.25;83.75
59831;BME280;45711;50.108;13.712;2023-04-10T06:33:15;98721.59;;;8.03;84.10
59831;BME280;45711;50.108;13.712;2023-04-10T06:35:44;98726.25;;;7.79;84.48
59831;BME280;45711;50.108;13.712;2023-04-10T06:38:09;98718.56;;;7.83;84.59
59831;BME280;45711;50.108;13.712;2023-04-10T06:40:35;98715.53;;;8.08;83.42
59831;BME280;45711;50.108;13.712;2023-04-10T06:43:04;98711.56;;;8.11;81.77
59831;BME280;45711;50.108;13.712;2023-04-10T06:45:29;98714.88;;;8.35;78.80
59831;BME280;45711;50.108;13.712;2023-04-10T06:47:58;98709.59;;;8.56;80.55
59831;BME280;45711;50.108;13.712;2023-04-10T06:50:24;98709.94;;;8.82;80.38
59831;BME280;45711;50.108;13.712;2023-04-10T06:52:50;98720.25;;;9.17;78.97
59831;BME280;45711;50.108;13.712;2023-04-10T06:55:17;98719.28;;;9.23;74.49
59831;BME280;45711;50.108;13.712;2023-04-10T06:57:43;98717.22;;;9.30;74.79
59831;BME280;45711;50.108;13.712;2023-04-10T07:00:12;98724.16;;;9.80;72.40
59831;BME280;45711;50.108;13.712;2023-04-10T07:02:40;98719.00;;;9.74;70.77
59831;BME280;45711;50.108;13.712;2023-04-10T07:05:06;98724.84;;;9.71;71.98
59831;BME280;45711;50.108;13.712;2023-04-10T07:07:33;98711.47;;;9.44;72.14
59831;BME280;45711;50.108;13.712;2023-04-10T07:09:58;98722.06;;;9.61;72.99
59831;BME280;45711;50.108;13.712;2023-04-10T07:12:24;98721.69;;;10.06;70.37
59831;BME280;45711;50.108;13.712;2023-04-10T07:14:49;98721.63;;;10.01;70.96
59831;BME280;45711;50.108;13.712;2023-04-10T07:17:17;98726.34;;;9.89;70.64
59831;BME280;45711;50.108;13.712;2023-04-10T07:19:42;98725.66;;;9.71;69.87
59831;BME280;45711;50.108;13.712;2023-04-10T07:22:08;98724.91;;;9.76;74.89
59831;BME280;45711;50.108;13.712;2023-04-10T07:24:36;98729.44;;;9.75;73.76
59831;BME280;45711;50.108;13.712;2023-04-10T07:27:02;98722.47;;;10.01;71.69
59831;BME280;45711;50.108;13.712;2023-04-10T07:29:29;98724.13;;;10.87;70.36
59831;BME280;45711;50.108;13.712;2023-04-10T07:31:55;98714.19;;;11.50;65.59
59831;BME280;45711;50.108;13.712;2023-04-10T07:34:21;98723.81;;;11.41;64.66
59831;BME280;45711;50.108;13.712;2023-04-10T07:36:46;98717.06;;;11.23;65.05
59831;BME280;45711;50.108;13.712;2023-04-10T07:39:12;98716.59;;;11.52;65.12
59831;BME280;45711;50.108;13.712;2023-04-10T07:41:39;98718.66;;;13.03;60.47
59831;BME280;45711;50.108;13.712;2023-04-10T07:44:06;98708.09;;;12.16;60.71
59831;BME280;45711;50.108;13.712;2023-04-10T07:46:37;98709.84;;;12.92;58.81
59831;BME280;45711;50.108;13.712;2023-04-10T07:49:03;98707.56;;;12.29;60.15
59831;BME280;45711;50.108;13.712;2023-04-10T07:51:29;98704.78;;;11.38;64.02
59831;BME280;45711;50.108;13.712;2023-04-10T07:53:55;98702.75;;;10.97;64.27
59831;BME280;45711;50.108;13.712;2023-04-10T07:56:21;98707.00;;;10.08;67.71
59831;BME280;45711;50.108;13.712;2023-04-10T07:58:50;98695.53;;;9.81;69.08
59831;BME280;45711;50.108;13.712;2023-04-10T08:01:16;98703.03;;;10.16;68.16
59831;BME280;45711;50.108;13.712;2023-04-10T08:03:44;98696.63;;;10.17;67.01
59831;BME280;45711;50.108;13.712;2023-04-10T08:06:12;98697.53;;;9.96;67.32
59831;BME280;45711;50.108;13.712;2023-04-10T08:08:38;98695.38;;;10.25;68.45
59831;BME280;45711;50.108;13.712;2023-04-10T08:11:24;98686.34;;;10.83;65.04
59831;BME280;45711;50.108;13.712;2023-04-10T08:14:01;98687.56;;;10.61;66.69
59831;BME280;45711;50.108;13.712;2023-04-10T08:16:32;98698.34;;;11.39;63.36
59831;BME280;45711;50.108;13.712;2023-04-10T08:18:59;98684.47;;;11.67;62.63
59831;BME280;45711;50.108;13.712;2023-04-10T08:21:26;98692.56;;;13.24;57.44
59831;BME280;45711;50.108;13.712;2023-04-10T08:23:52;98684.16;;;13.30;52.13
59831;BME280;45711;50.108;13.712;2023-04-10T08:26:18;98683.34;;;11.48;56.58
59831;BME280;45711;50.108;13.712;2023-04-10T08:28:45;98682.31;;;11.69;59.29
59831;BME280;45711;50.108;13.712;2023-04-10T08:31:15;98686.06;;;11.78;58.48
59831;BME280;45711;50.108;13.712;2023-04-10T08:33:40;98680.97;;;11.82;56.66
59831;BME280;45711;50.108;13.712;2023-04-10T08:36:09;98680.00;;;11.05;62.43
59831;BME280;45711;50.108;13.712;2023-04-10T08:38:35;98677.81;;;10.97;62.93
59831;BME280;45711;50.108;13.712;2023-04-10T08:41:01;98686.25;;;14.17;53.98
59831;BME280;45711;50.108;13.712;2023-04-10T08:43:26;98685.53;;;13.72;53.02
59831;BME280;45711;50.108;13.712;2023-04-10T08:45:53;98691.50;;;14.62;52.56
59831;BME280;45711;50.108;13.712;2023-04-10T08:48:25;98692.47;;;11.62;57.67
59831;BME280;45711;50.108;13.712;2023-04-10T08:50:59;98689.31;;;10.87;62.47
59831;BME280;45711;50.108;13.712;2023-04-10T08:53:29;98684.22;;;10.86;60.86
59831;BME280;45711;50.108;13.712;2023-04-10T08:55:55;98684.44;;;10.79;61.94
59831;BME280;45711;50.108;13.712;2023-04-10T08:58:23;98680.34;;;10.61;61.31
59831;BME280;45711;50.108;13.712;2023-04-10T09:00:50;98686.56;;;10.67;60.28
59831;BME280;45711;50.108;13.712;2023-04-10T09:03:16;98689.81;;;10.79;61.69
59831;BME280;45711;50.108;13.712;2023-04-10T09:05:43;98678.28;;;10.31;63.50
59831;BME280;45711;50.108;13.712;2023-04-10T09:08:09;98681.22;;;10.72;63.50
59831;BME280;45711;50.108;13.712;2023-04-10T09:10:37;98676.97;;;12.30;59.91
59831;BME280;45711;50.108;13.712;2023-04-10T09:13:03;98673.19;;;12.31;58.77
59831;BME280;45711;50.108;13.712;2023-04-10T09:15:29;98666.50;;;12.19;59.51
59831;BME280;45711;50.108;13.712;2023-04-10T09:17:56;98667.75;;;12.72;57.94
59831;BME280;45711;50.108;13.712;2023-04-10T09:20:24;98673.06;;;13.47;55.29
59831;BME280;45711;50.108;13.712;2023-04-10T09:22:54;98670.00;;;13.64;52.55
59831;BME280;45711;50.108;13.712;2023-04-10T09:25:31;98676.81;;;14.49;52.70
59831;BME280;45711;50.108;13.712;2023-04-10T09:28:02;98666.97;;;14.05;52.42
59831;BME280;45711;50.108;13.712;2023-04-10T09:30:35;98670.16;;;13.39;55.25
59831;BME280;45711;50.108;13.712;2023-04-10T09:33:01;98667.69;;;14.16;51.92
59831;BME280;45711;50.108;13.712;2023-04-10T09:35:39;98666.06;;;14.73;49.67
59831;BME280;45711;50.108;13.712;2023-04-10T09:38:17;98668.66;;;13.96;52.36
59831;BME280;45711;50.108;13.712;2023-04-10T09:40:43;98661.84;;;13.35;54.07
59831;BME280;45711;50.108;13.712;2023-04-10T09:43:20;98671.44;;;14.20;50.68
59831;BME280;45711;50.108;13.712;2023-04-10T09:45:46;98649.16;;;13.46;53.38
59831;BME280;45711;50.108;13.712;2023-04-10T09:48:12;98653.94;;;13.49;53.85
59831;BME280;45711;50.108;13.712;2023-04-10T09:50:39;98646.50;;;12.71;57.18
59831;BME280;45711;50.108;13.712;2023-04-10T09:53:08;98643.47;;;12.98;55.01
59831;BME280;45711;50.108;13.712;2023-04-10T09:55:35;98636.44;;;13.07;52.87
59831;BME280;45711;50.108;13.712;2023-04-10T09:58:02;98637.47;;;13.95;48.38
59831;BME280;45711;50.108;13.712;2023-04-10T10:00:28;98634.50;;;13.62;53.79
59831;BME280;45711;50.108;13.712;2023-04-10T10:02:55;98633.72;;;13.56;53.96
59831;BME280;45711;50.108;13.712;2023-04-10T10:05:22;98622.38;;;13.20;54.23
59831;BME280;45711;50.108;13.712;2023-04-10T10:07:52;98624.88;;;12.47;57.72
59831;BME280;45711;50.108;13.712;2023-04-10T10:10:18;98619.25;;;13.03;51.52
59831;BME280;45711;50.108;13.712;2023-04-10T10:12:50;98617.44;;;13.43;50.83
59831;BME280;45711;50.108;13.712;2023-04-10T10:15:22;98610.03;;;13.93;52.62
59831;BME280;45711;50.108;13.712;2023-04-10T10:17:57;98605.25;;;13.55;52.01
59831;BME280;45711;50.108;13.712;2023-04-10T10:20:25;98601.13;;;13.68;50.79
59831;BME280;45711;50.108;13.712;2023-04-10T10:22:51;98598.94;;;12.06;58.20
59831;BME280;45711;50.108;13.712;2023-04-10T10:25:18;98590.09;;;12.06;58.65
59831;BME280;45711;50.108;13.712;2023-04-10T10:27:48;98593.88;;;12.70;51.51
59831;BME280;45711;50.108;13.712;2023-04-10T10:30:17;98589.75;;;12.98;50.45
59831;BME280;45711;50.108;13.712;2023-04-10T10:32:44;98593.34;;;12.73;51.22
59831;BME280;45711;50.108;13.712;2023-04-10T10:35:11;98583.31;;;13.38;53.03
59831;BME280;45711;50.108;13.712;2023-04-10T10:37:37;98591.47;;;13.28;53.26
59831;BME280;45711;50.108;13.712;2023-04-10T10:40:08;98592.25;;;13.68;50.95
59831;BME280;45711;50.108;13.712;2023-04-10T10:42:41;98582.19;;;13.44;51.62
59831;BME280;45711;50.108;13.712;2023-04-10T10:45:15;98577.00;;;13.14;53.04
59831;BME280;45711;50.108;13.712;2023-04-10T10:47:44;98579.66;;;13.63;52.55
59831;BME280;45711;50.108;13.712;2023-04-10T10:50:14;98569.22;;;13.86;50.94
59831;BME280;45711;50.108;13.712;2023-04-10T10:52:42;98567.41;;;13.47;52.11
59831;BME280;45711;50.108;13.712;2023-04-10T10:55:31;98560.63;;;13.54;53.09
59831;BME280;45711;50.108;13.712;2023-04-10T10:58:00;98546.63;;;13.13;55.42
59831;BME280;45711;50.108;13.712;2023-04-10T11:01:03;98555.09;;;14.23;49.86
59831;BME280;45711;50.108;13.712;2023-04-10T11:03:29;98563.84;;;14.09;46.83
59831;BME280;45711;50.108;13.712;2023-04-10T11:05:56;98556.22;;;13.93;49.42
59831;BME280;45711;50.108;13.712;2023-04-10T11:08:38;98546.28;;;14.17;51.37
59831;BME280;45711;50.108;13.712;2023-04-10T11:11:07;98548.78;;;13.85;52.29
59831;BME280;45711;50.108;13.712;2023-04-10T11:13:34;98539.75;;;13.41;53.77
59831;BME280;45711;50.108;13.712;2023-04-10T11:16:02;98544.25;;;12.67;55.66
59831;BME280;45711;50.108;13.712;2023-04-10T11:19:03;98540.16;;;13.58;50.23
59831;BME280;45711;50.108;13.712;2023-04-10T11:21:29;98540.06;;;13.93;49.82
59831;BME280;45711;50.108;13.712;2023-04-10T11:24:05;98534.09;;;13.43;48.65
59831;BME280;45711;50.108;13.712;2023-04-10T11:26:39;98531.22;;;13.63;51.54
59831;BME280;45711;50.108;13.712;2023-04-10T11:29:31;98533.13;;;12.84;55.02
59831;BME280;45711;50.108;13.712;2023-04-10T11:31:59;98521.63;;;12.14;53.68
59831;BME280;45711;50.108;13.712;2023-04-10T11:34:26;98521.44;;;12.60;52.00
59831;BME280;45711;50.108;13.712;2023-04-10T11:36:51;98513.50;;;12.83;55.63
59831;BME280;45711;50.108;13.712;2023-04-10T11:39:18;98511.66;;;13.23;48.68
59831;BME280;45711;50.108;13.712;2023-04-10T11:41:45;98508.41;;;13.26;47.35
59831;BME280;45711;50.108;13.712;2023-04-10T11:44:13;98495.94;;;11.97;58.35
59831;BME280;45711;50.108;13.712;2023-04-10T11:46:40;98496.34;;;13.53;47.54
59831;BME280;45711;50.108;13.712;2023-04-10T11:49:09;98494.28;;;13.45;47.75
59831;BME280;45711;50.108;13.712;2023-04-10T11:51:35;98481.69;;;12.62;55.25
59831;BME280;45711;50.108;13.712;2023-04-10T11:54:06;98488.44;;;12.98;50.65
59831;BME280;45711;50.108;13.712;2023-04-10T11:56:32;98483.50;;;13.50;47.14
59831;BME280;45711;50.108;13.712;2023-04-10T11:58:58;98473.41;;;13.37;46.19
59831;BME280;45711;50.108;13.712;2023-04-10T12:01:23;98468.97;;;13.51;46.74
59831;BME280;45711;50.108;13.712;2023-04-10T12:03:49;98458.66;;;13.58;48.76
59831;BME280;45711;50.108;13.712;2023-04-10T12:06:17;98459.94;;;13.66;43.92
59831;BME280;45711;50.108;13.712;2023-04-10T12:08:46;98448.75;;;13.53;43.59
59831;BME280;45711;50.108;13.712;2023-04-10T12:11:17;98441.69;;;13.33;46.97
59831;BME280;45711;50.108;13.712;2023-04-10T12:13:43;98449.75;;;13.87;43.15
59831;BME280;45711;50.108;13.712;2023-04-10T12:16:09;98444.00;;;14.17;40.59
59831;BME280;45711;50.108;13.712;2023-04-10T12:18:36;98444.94;;;13.60;43.06
59831;BME280;45711;50.108;13.712;2023-04-10T12:21:03;98442.66;;;13.72;48.96
59831;BME280;45711;50.108;13.712;2023-04-10T12:23:30;98440.66;;;13.58;42.25
59831;BME280;45711;50.108;13.712;2023-04-10T12:26:11;98438.28;;;13.52;44.08
59831;BME280;45711;50.108;13.712;2023-04-10T12:28:38;98434.69;;;13.62;44.78
59831;BME280;45711;50.108;13.712;2023-04-10T12:31:05;98436.50;;;13.42;47.60
59831;BME280;45711;50.108;13.712;2023-04-10T12:33:31;98421.84;;;13.29;45.12
59831;BME280;45711;50.108;13.712;2023-04-10T12:35:56;98428.00;;;13.83;44.16
59831;BME280;45711;50.108;13.712;2023-04-10T12:38:41;98429.38;;;13.56;43.62
59831;BME280;45711;50.108;13.712;2023-04-10T12:41:08;98418.13;;;13.54;44.33
59831;BME280;45711;50.108;13.712;2023-04-10T12:43:36;98426.31;;;12.76;51.33
59831;BME280;45711;50.108;13.712;2023-04-10T12:46:03;98420.41;;;12.29;50.99
59831;BME280;45711;50.108;13.712;2023-04-10T12:48:29;98423.38;;;12.72;43.44
59831;BME280;45711;50.108;13.712;2023-04-10T12:50:55;98419.91;;;12.67;43.61
59831;BME280;45711;50.108;13.712;2023-04-10T12:53:20;98417.41;;;13.09;48.04
59831;BME280;45711;50.108;13.712;2023-04-10T12:55:57;98412.31;;;13.42;45.87
59831;BME280;45711;50.108;13.712;2023-04-10T12:58:24;98406.63;;;13.15;46.59